Time;durP1;ratioP1;P1;durP2;ratioP2;P2;SDS_P1;SDS_P2;PMS_P1;PMS_P2;Temp;Humidity;BMP_temperature;BMP_pressure;BME280_temperature;BME280_humidity;BME280_pressure;Samples;Min_cycle;Max_cycle;Signal;HPM_P1;HPM_P2
2023/04/01 00:00:18;;;;;;;0.40;0.32;;;;;;;;;;5015607;28;20025;-82
2023/04/01 00:02:43;;;;;;;3.63;0.60;;;;;;;;;;5032814;28;20657;-81
2023/04/01 00:05:10;;;;;;;2.67;0.73;;;;;;;;;;5028750;28;20096;-82
2023/04/01 00:07:39;;;;;;;0.30;0.30;;;;;;;;;;5025560;28;20458;-82
2023/04/01 00:10:07;;;;;;;2.08;0.60;;;;;;;;;;5009858;28;20592;-82
2023/04/01 00:12:32;;;;;;;0.52;0.25;;;;;;;;;;5026159;28;20040;-83
2023/04/01 00:14:58;;;;;;;2.00;0.20;;;;;;;;;;5028512;28;20026;-81
2023/04/01 00:17:24;;;;;;;0.82;0.38;;;;;;;;;;5026345;28;20029;-82
2023/04/01 00:19:49;;;;;;;0.90;0.52;;;;;;;;;;5016708;28;20025;-82
2023/04/01 00:22:15;;;;;;;0.60;0.50;;;;;;;;;;5029377;28;20107;-81
2023/04/01 00:24:40;;;;;;;3.13;0.85;;;;;;;;;;5028621;28;20092;-81
2023/04/01 00:27:07;;;;;;;3.88;0.68;;;;;;;;;;5017402;28;20025;-81
2023/04/01 00:29:34;;;;;;;0.93;0.43;;;;;;;;;;5035491;28;20148;-82
2023/04/01 00:32:00;;;;;;;0.57;0.30;;;;;;;;;;5014985;28;20083;-82
2023/04/01 00:34:26;;;;;;;1.65;0.65;;;;;;;;;;5027370;28;20033;-82
2023/04/01 00:36:52;;;;;;;2.03;0.52;;;;;;;;;;5028893;28;20036;-82
2023/04/01 00:39:18;;;;;;;1.63;0.70;;;;;;;;;;5030333;28;20033;-81
2023/04/01 00:41:44;;;;;;;0.73;0.38;;;;;;;;;;5031100;28;20133;-84
2023/04/01 00:44:23;;;;;;;2.15;0.70;;;;;;;;;;5003081;28;20108;-82
2023/04/01 00:46:48;;;;;;;2.45;0.40;;;;;;;;;;5031521;28;20025;-82
2023/04/01 00:49:17;;;;;;;1.45;0.50;;;;;;;;;;5030168;28;20048;-81
2023/04/01 00:51:44;;;;;;;3.63;0.77;;;;;;;;;;5029556;28;20022;-79
2023/04/01 00:54:11;;;;;;;1.20;0.75;;;;;;;;;;5031941;28;20034;-82
2023/04/01 00:56:41;;;;;;;3.05;0.75;;;;;;;;;;5033736;28;20025;-83
2023/04/01 00:59:11;;;;;;;3.03;0.57;;;;;;;;;;5033067;28;20033;-82
2023/04/01 01:01:37;;;;;;;0.70;0.60;;;;;;;;;;5040873;28;20025;-81
2023/04/01 01:04:03;;;;;;;0.85;0.50;;;;;;;;;;5011674;28;20082;-83
2023/04/01 01:06:55;;;;;;;1.85;0.60;;;;;;;;;;5027142;28;20025;-83
2023/04/01 01:09:26;;;;;;;1.33;0.60;;;;;;;;;;5014206;28;20033;-82
2023/04/01 01:12:25;;;;;;;0.55;0.55;;;;;;;;;;5008110;28;20262;-82
2023/04/01 01:15:02;;;;;;;0.22;0.22;;;;;;;;;;5000944;28;20025;-82
2023/04/01 01:17:57;;;;;;;1.45;0.70;;;;;;;;;;5033653;28;20797;-82
2023/04/01 01:20:48;;;;;;;6.13;0.88;;;;;;;;;;5005136;28;20056;-81
2023/04/01 01:23:36;;;;;;;3.97;0.77;;;;;;;;;;5018867;28;20071;-81
2023/04/01 01:26:37;;;;;;;0.95;0.50;;;;;;;;;;5010445;28;20021;-80
2023/04/01 01:29:08;;;;;;;2.10;0.70;;;;;;;;;;5031753;28;20647;-82
2023/04/01 01:31:38;;;;;;;1.40;0.40;;;;;;;;;;5030885;28;20021;-82
2023/04/01 01:34:18;;;;;;;0.32;0.30;;;;;;;;;;5028645;28;20033;-81
2023/04/01 01:36:48;;;;;;;0.35;0.35;;;;;;;;;;5032628;28;20778;-81
2023/04/01 01:39:14;;;;;;;0.43;0.43;;;;;;;;;;5031178;28;20025;-82
2023/04/01 01:41:42;;;;;;;0.60;0.30;;;;;;;;;;5017801;28;20091;-81
2023/04/01 01:44:12;;;;;;;4.50;0.60;;;;;;;;;;5035398;28;20086;-83
2023/04/01 01:46:40;;;;;;;0.43;0.40;;;;;;;;;;5033433;28;20048;-81
2023/04/01 01:49:07;;;;;;;0.77;0.50;;;;;;;;;;5033935;28;20033;-81
2023/04/01 01:51:33;;;;;;;1.35;0.70;;;;;;;;;;5015926;28;20057;-79
2023/04/01 01:53:58;;;;;;;2.13;0.38;;;;;;;;;;5014990;28;20021;-80
2023/04/01 01:56:28;;;;;;;0.57;0.57;;;;;;;;;;5030666;28;20026;-80
2023/04/01 01:59:05;;;;;;;3.25;1.08;;;;;;;;;;5015916;28;20026;-79
2023/04/01 02:01:35;;;;;;;0.50;0.30;;;;;;;;;;5029010;28;20033;-82
2023/04/01 02:04:00;;;;;;;1.70;0.68;;;;;;;;;;5030903;28;20032;-83
2023/04/01 02:06:30;;;;;;;1.98;0.57;;;;;;;;;;5032362;28;20037;-83
2023/04/01 02:09:05;;;;;;;0.47;0.47;;;;;;;;;;5033332;28;20049;-83
2023/04/01 02:11:36;;;;;;;0.65;0.30;;;;;;;;;;5030153;28;20036;-82
2023/04/01 02:14:07;;;;;;;0.60;0.60;;;;;;;;;;5037726;28;20041;-82
2023/04/01 02:16:46;;;;;;;3.63;0.63;;;;;;;;;;5037472;28;20085;-82
2023/04/01 02:19:13;;;;;;;0.45;0.40;;;;;;;;;;5041584;28;20010;-80
2023/04/01 02:21:40;;;;;;;4.63;0.57;;;;;;;;;;5045184;28;20029;-81
2023/04/01 02:24:10;;;;;;;0.45;0.32;;;;;;;;;;5045453;28;20025;-82
2023/04/01 02:26:35;;;;;;;0.50;0.45;;;;;;;;;;5043920;28;20048;-81
2023/04/01 02:29:01;;;;;;;0.93;0.60;;;;;;;;;;5045147;28;20016;-82
2023/04/01 02:31:27;;;;;;;1.90;0.70;;;;;;;;;;5046192;28;20108;-82
2023/04/01 02:33:53;;;;;;;0.75;0.70;;;;;;;;;;5021048;28;20060;-81
2023/04/01 02:36:24;;;;;;;0.50;0.30;;;;;;;;;;5038612;28;20088;-83
2023/04/01 02:38:51;;;;;;;1.08;0.50;;;;;;;;;;5018984;28;20052;-84
2023/04/01 02:41:20;;;;;;;0.25;0.25;;;;;;;;;;5037220;28;20169;-83
2023/04/01 02:43:46;;;;;;;1.25;0.50;;;;;;;;;;5032990;28;20525;-83
2023/04/01 02:46:11;;;;;;;0.63;0.50;;;;;;;;;;5020347;28;20083;-83
2023/04/01 02:48:37;;;;;;;0.38;0.38;;;;;;;;;;5021187;28;20045;-84
2023/04/01 02:51:33;;;;;;;1.15;0.47;;;;;;;;;;5038499;28;20018;-83
2023/04/01 02:54:12;;;;;;;0.75;0.40;;;;;;;;;;5019741;28;20033;-82
2023/04/01 02:56:37;;;;;;;1.60;0.35;;;;;;;;;;5039476;28;20772;-82
2023/04/01 02:59:03;;;;;;;0.30;0.30;;;;;;;;;;5021279;28;20033;-81
2023/04/01 03:01:28;;;;;;;1.17;0.90;;;;;;;;;;5038462;28;20099;-82
2023/04/01 03:03:53;;;;;;;0.85;0.57;;;;;;;;;;5014284;28;20025;-82
2023/04/01 03:06:19;;;;;;;0.38;0.30;;;;;;;;;;5037073;28;20030;-82
2023/04/01 03:08:44;;;;;;;1.40;0.50;;;;;;;;;;5039635;28;20102;-82
2023/04/01 03:11:10;;;;;;;1.90;0.52;;;;;;;;;;5023436;28;20090;-81
2023/04/01 03:13:36;;;;;;;0.20;0.20;;;;;;;;;;5037468;28;20036;-81
2023/04/01 03:16:02;;;;;;;0.20;0.20;;;;;;;;;;5021823;28;20052;-82
2023/04/01 03:18:27;;;;;;;2.35;0.45;;;;;;;;;;5020526;28;20028;-80
2023/04/01 03:20:53;;;;;;;2.97;0.45;;;;;;;;;;5020649;28;20046;-83
2023/04/01 03:23:20;;;;;;;1.77;0.35;;;;;;;;;;5050802;28;20096;-80
2023/04/01 03:25:46;;;;;;;0.82;0.57;;;;;;;;;;5036779;28;20024;-80
2023/04/01 03:28:12;;;;;;;2.08;0.40;;;;;;;;;;5033925;28;20037;-81
2023/04/01 03:30:38;;;;;;;0.10;0.10;;;;;;;;;;5042481;28;20029;-82
2023/04/01 03:33:04;;;;;;;0.70;0.70;;;;;;;;;;5024468;28;20071;-82
2023/04/01 03:35:29;;;;;;;0.60;0.60;;;;;;;;;;5041149;28;20026;-82
2023/04/01 03:37:55;;;;;;;2.50;0.60;;;;;;;;;;5041264;28;20387;-81
2023/04/01 03:40:21;;;;;;;7.30;0.82;;;;;;;;;;5041004;28;20032;-83
2023/04/01 03:42:47;;;;;;;2.50;0.60;;;;;;;;;;5033214;28;20037;-82
2023/04/01 03:45:12;;;;;;;1.48;0.47;;;;;;;;;;5037852;28;20020;-83
2023/04/01 03:47:38;;;;;;;0.95;0.40;;;;;;;;;;5018485;28;20029;-83
2023/04/01 03:50:05;;;;;;;0.60;0.60;;;;;;;;;;5015863;28;20036;-83
2023/04/01 03:52:31;;;;;;;0.30;0.30;;;;;;;;;;5039857;28;20048;-83
2023/04/01 03:54:56;;;;;;;1.40;0.43;;;;;;;;;;5047018;28;20029;-81
2023/04/01 03:57:22;;;;;;;1.25;0.50;;;;;;;;;;5030542;28;20033;-81
2023/04/01 03:59:47;;;;;;;0.80;0.35;;;;;;;;;;5037051;28;20048;-82
2023/04/01 04:02:12;;;;;;;1.08;0.43;;;;;;;;;;5032450;28;20495;-82
2023/04/01 04:04:38;;;;;;;2.95;0.45;;;;;;;;;;5035943;28;20037;-83
2023/04/01 04:07:03;;;;;;;0.35;0.35;;;;;;;;;;5035047;28;20046;-82
2023/04/01 04:09:31;;;;;;;0.38;0.38;;;;;;;;;;5037534;28;20435;-83
2023/04/01 04:11:56;;;;;;;2.83;0.50;;;;;;;;;;5014270;28;20026;-83
2023/04/01 04:14:23;;;;;;;0.52;0.25;;;;;;;;;;5013621;28;20041;-81
2023/04/01 04:16:48;;;;;;;0.22;0.22;;;;;;;;;;5037788;28;20080;-83
2023/04/01 04:19:13;;;;;;;0.70;0.70;;;;;;;;;;5020100;28;20025;-83
2023/04/01 04:21:40;;;;;;;0.25;0.25;;;;;;;;;;5035424;28;20167;-83
2023/04/01 04:24:06;;;;;;;0.60;0.45;;;;;;;;;;5037620;28;20484;-81
2023/04/01 04:26:31;;;;;;;0.20;0.20;;;;;;;;;;5019103;28;20056;-83
2023/04/01 04:28:57;;;;;;;0.60;0.40;;;;;;;;;;5015897;28;20112;-82
2023/04/01 04:31:24;;;;;;;0.30;0.30;;;;;;;;;;5038343;28;20034;-83
2023/04/01 04:33:51;;;;;;;0.30;0.30;;;;;;;;;;5019463;28;20072;-81
2023/04/01 04:36:16;;;;;;;1.02;0.30;;;;;;;;;;5035522;28;20396;-83
2023/04/01 04:38:42;;;;;;;0.43;0.40;;;;;;;;;;5018187;28;20056;-81
2023/04/01 04:41:14;;;;;;;2.13;0.55;;;;;;;;;;5023056;28;20056;-81
2023/04/01 04:43:41;;;;;;;0.38;0.38;;;;;;;;;;5045923;28;20021;-81
2023/04/01 04:46:10;;;;;;;3.55;0.43;;;;;;;;;;5026602;28;20021;-81
2023/04/01 04:48:36;;;;;;;0.35;0.30;;;;;;;;;;5045642;28;20047;-82
2023/04/01 04:51:02;;;;;;;0.45;0.38;;;;;;;;;;5019409;28;20060;-81
2023/04/01 04:53:27;;;;;;;0.75;0.55;;;;;;;;;;5018844;28;20037;-83
2023/04/01 04:55:53;;;;;;;0.30;0.30;;;;;;;;;;5033423;28;20056;-81
2023/04/01 04:58:18;;;;;;;0.10;0.10;;;;;;;;;;5037274;28;20048;-82
2023/04/01 05:00:45;;;;;;;1.55;0.50;;;;;;;;;;5036259;28;20104;-83
2023/04/01 05:03:11;;;;;;;0.85;0.20;;;;;;;;;;5021172;28;20032;-82
2023/04/01 05:05:37;;;;;;;1.33;0.50;;;;;;;;;;5036590;28;20113;-81
2023/04/01 05:08:02;;;;;;;1.23;0.43;;;;;;;;;;5038011;28;20044;-81
2023/04/01 05:10:28;;;;;;;1.55;0.68;;;;;;;;;;5037383;28;20025;-83
2023/04/01 05:12:53;;;;;;;0.93;0.47;;;;;;;;;;5035845;28;20064;-82
2023/04/01 05:15:19;;;;;;;0.85;0.50;;;;;;;;;;5021064;28;20036;-83
2023/04/01 05:17:44;;;;;;;0.75;0.55;;;;;;;;;;5043403;28;20021;-82
2023/04/01 05:20:13;;;;;;;1.20;0.55;;;;;;;;;;5022513;28;20021;-83
2023/04/01 05:22:38;;;;;;;0.30;0.30;;;;;;;;;;5040545;28;20033;-83
2023/04/01 05:25:04;;;;;;;0.75;0.75;;;;;;;;;;5041639;28;20110;-82
2023/04/01 05:27:29;;;;;;;0.50;0.50;;;;;;;;;;5023243;28;20106;-82
2023/04/01 05:29:55;;;;;;;1.02;0.30;;;;;;;;;;5021933;28;20113;-82
2023/04/01 05:32:21;;;;;;;0.65;0.65;;;;;;;;;;5040686;28;20043;-83
2023/04/01 05:34:46;;;;;;;0.85;0.50;;;;;;;;;;5039676;28;20060;-81
2023/04/01 05:37:11;;;;;;;2.35;0.43;;;;;;;;;;5040179;28;20102;-82
2023/04/01 05:39:38;;;;;;;2.88;0.63;;;;;;;;;;5039884;28;20029;-83
2023/04/01 05:42:06;;;;;;;0.98;0.50;;;;;;;;;;5020509;28;20036;-80
2023/04/01 05:44:31;;;;;;;3.42;0.80;;;;;;;;;;5049087;28;20048;-80
2023/04/01 05:46:56;;;;;;;1.23;0.52;;;;;;;;;;5048435;28;20021;-81
2023/04/01 05:49:22;;;;;;;1.42;0.50;;;;;;;;;;5049207;28;20108;-80
2023/04/01 05:51:47;;;;;;;1.25;0.60;;;;;;;;;;5047721;28;20487;-80
2023/04/01 05:54:12;;;;;;;1.25;0.63;;;;;;;;;;5042917;28;20436;-81
2023/04/01 05:56:38;;;;;;;0.75;0.68;;;;;;;;;;5036848;28;20038;-81
2023/04/01 05:59:03;;;;;;;1.33;0.77;;;;;;;;;;5044767;28;20056;-80
2023/04/01 06:01:29;;;;;;;7.13;0.75;;;;;;;;;;5044904;28;20045;-81
2023/04/01 06:03:54;;;;;;;2.70;0.50;;;;;;;;;;5029296;28;20041;-80
2023/04/01 06:06:25;;;;;;;0.73;0.73;;;;;;;;;;5030976;28;20021;-80
2023/04/01 06:08:52;;;;;;;1.65;0.47;;;;;;;;;;5028633;28;20357;-82
2023/04/01 06:11:35;;;;;;;0.17;0.17;;;;;;;;;;5035747;28;20029;-81
2023/04/01 06:14:15;;;;;;;0.47;0.35;;;;;;;;;;5035824;28;20467;-82
2023/04/01 06:16:43;;;;;;;3.70;1.27;;;;;;;;;;5038341;28;20025;-81
2023/04/01 06:19:11;;;;;;;0.80;0.32;;;;;;;;;;5039742;28;20108;-82
2023/04/01 06:21:53;;;;;;;0.63;0.55;;;;;;;;;;5036174;28;20499;-81
2023/04/01 06:24:39;;;;;;;1.13;0.45;;;;;;;;;;5046196;28;20059;-82
2023/04/01 06:27:21;;;;;;;1.65;0.65;;;;;;;;;;5037502;28;20541;-81
2023/04/01 06:30:08;;;;;;;0.55;0.40;;;;;;;;;;5032268;28;20033;-82
2023/04/01 06:32:42;;;;;;;0.93;0.52;;;;;;;;;;5039643;28;20511;-80
2023/04/01 06:35:11;;;;;;;1.85;0.70;;;;;;;;;;5033683;28;20022;-81
2023/04/01 06:38:00;;;;;;;0.65;0.50;;;;;;;;;;5017638;28;20025;-81
2023/04/01 06:40:52;;;;;;;0.68;0.38;;;;;;;;;;5041107;28;20060;-80
2023/04/01 06:43:33;;;;;;;0.47;0.47;;;;;;;;;;5016051;28;20033;-80
2023/04/01 06:46:10;;;;;;;0.82;0.30;;;;;;;;;;5029183;28;20052;-81
2023/04/01 06:48:42;;;;;;;0.40;0.40;;;;;;;;;;5022650;28;20103;-80
2023/04/01 06:51:24;;;;;;;0.30;0.30;;;;;;;;;;5018308;28;20028;-82
2023/04/01 06:54:21;;;;;;;1.03;0.60;;;;;;;;;;5037434;28;20025;-83
2023/04/01 06:56:55;;;;;;;1.67;0.68;;;;;;;;;;5025035;28;20050;-83
2023/04/01 06:59:33;;;;;;;1.13;0.50;;;;;;;;;;5024848;28;20033;-82
2023/04/01 07:02:13;;;;;;;0.20;0.20;;;;;;;;;;5022778;28;20068;-81
2023/04/01 07:04:50;;;;;;;0.60;0.32;;;;;;;;;;5052092;28;20021;-81
2023/04/01 07:07:42;;;;;;;1.75;0.65;;;;;;;;;;5039950;28;20040;-82
2023/04/01 07:10:23;;;;;;;1.45;0.50;;;;;;;;;;5038266;28;20112;-82
2023/04/01 07:12:58;;;;;;;1.67;0.43;;;;;;;;;;5037309;28;20091;-81
2023/04/01 07:15:43;;;;;;;0.73;0.43;;;;;;;;;;5020580;28;20379;-82
2023/04/01 07:18:28;;;;;;;1.50;0.50;;;;;;;;;;5040049;28;20048;-82
2023/04/01 07:20:55;;;;;;;0.45;0.30;;;;;;;;;;5038855;28;20715;-82
2023/04/01 07:23:28;;;;;;;1.60;0.30;;;;;;;;;;5038196;28;20033;-82
2023/04/01 07:26:04;;;;;;;0.90;0.32;;;;;;;;;;5020231;28;20013;-82
2023/04/01 07:28:33;;;;;;;0.20;0.20;;;;;;;;;;5018173;28;20032;-81
2023/04/01 07:31:02;;;;;;;1.10;0.30;;;;;;;;;;5025123;28;20618;-81
2023/04/01 07:33:46;;;;;;;10.48;0.57;;;;;;;;;;5030420;28;20056;-81
2023/04/01 07:36:21;;;;;;;0.20;0.20;;;;;;;;;;5033549;28;20025;-80
2023/04/01 07:39:15;;;;;;;1.13;0.30;;;;;;;;;;5044823;28;20048;-81
2023/04/01 07:42:15;;;;;;;0.30;0.30;;;;;;;;;;5036545;28;20558;-81
2023/04/01 07:45:18;;;;;;;0.52;0.40;;;;;;;;;;5038773;28;20127;-82
2023/04/01 07:47:49;;;;;;;2.83;1.40;;;;;;;;;;5041727;28;20040;-80
2023/04/01 07:50:22;;;;;;;0.30;0.30;;;;;;;;;;5052948;28;20033;-79
2023/04/01 07:52:58;;;;;;;0.55;0.35;;;;;;;;;;5050561;28;20041;-79
2023/04/01 07:55:31;;;;;;;0.43;0.43;;;;;;;;;;5045680;28;20033;-80
2023/04/01 07:58:19;;;;;;;1.65;0.30;;;;;;;;;;5034704;28;20044;-79
2023/04/01 08:00:49;;;;;;;0.85;0.30;;;;;;;;;;5034692;28;20627;-80
2023/04/01 08:03:33;;;;;;;0.10;0.10;;;;;;;;;;5046948;28;20021;-81
2023/04/01 08:06:02;;;;;;;1.95;0.98;;;;;;;;;;5039883;28;20024;-81
2023/04/01 08:08:36;;;;;;;1.52;1.08;;;;;;;;;;5055017;28;20093;-80
2023/04/01 08:11:15;;;;;;;3.20;0.47;;;;;;;;;;5035368;28;20032;-81
2023/04/01 08:13:53;;;;;;;1.00;0.57;;;;;;;;;;5038595;28;20036;-80
2023/04/01 08:16:33;;;;;;;1.63;0.80;;;;;;;;;;5049031;28;20093;-79
2023/04/01 08:19:21;;;;;;;0.20;0.20;;;;;;;;;;5023163;28;20032;-81
2023/04/01 08:21:52;;;;;;;0.32;0.32;;;;;;;;;;5029919;28;20033;-81
2023/04/01 08:24:44;;;;;;;1.57;0.33;;;;;;;;;;5015657;28;20036;-79
2023/04/01 08:27:24;;;;;;;0.30;0.30;;;;;;;;;;5031757;28;20051;-82
2023/04/01 08:30:01;;;;;;;0.30;0.30;;;;;;;;;;5020859;28;20033;-83
2023/04/01 08:32:56;;;;;;;0.20;0.17;;;;;;;;;;5030866;28;20064;-82
2023/04/01 08:35:30;;;;;;;0.30;0.30;;;;;;;;;;5008978;28;20067;-83
2023/04/01 08:38:01;;;;;;;0.60;0.40;;;;;;;;;;5035623;28;20032;-82
2023/04/01 08:40:37;;;;;;;1.10;0.50;;;;;;;;;;5017741;28;20071;-82
2023/04/01 08:43:15;;;;;;;0.10;0.10;;;;;;;;;;5027996;28;20060;-82
2023/04/01 08:45:59;;;;;;;0.63;0.32;;;;;;;;;;5040616;28;20056;-82
2023/04/01 08:48:31;;;;;;;1.75;0.47;;;;;;;;;;5044657;28;20033;-82
2023/04/01 08:51:08;;;;;;;2.17;0.63;;;;;;;;;;5057045;28;20060;-82
2023/04/01 08:53:54;;;;;;;0.43;0.32;;;;;;;;;;5037055;28;20040;-81
2023/04/01 08:56:26;;;;;;;0.45;0.45;;;;;;;;;;5028218;28;20257;-81
2023/04/01 08:58:59;;;;;;;;;;;;;;;;;;5047571;28;20052;-81
2023/04/01 09:01:43;;;;;;;0.45;0.45;;;;;;;;;;5055283;28;19925;-81
2023/04/01 09:04:21;;;;;;;1.70;0.65;;;;;;;;;;5039032;28;20113;-83
2023/04/01 09:07:05;;;;;;;0.35;0.35;;;;;;;;;;5039792;28;20040;-83
2023/04/01 09:09:52;;;;;;;0.30;0.30;;;;;;;;;;5066810;28;20012;-82
2023/04/01 09:12:28;;;;;;;0.85;0.50;;;;;;;;;;5054091;28;20029;-81
2023/04/01 09:15:20;;;;;;;0.40;0.40;;;;;;;;;;5043836;28;20025;-83
2023/04/01 09:18:19;;;;;;;4.28;0.70;;;;;;;;;;5019322;28;20029;-82
2023/04/01 09:21:14;;;;;;;1.67;0.63;;;;;;;;;;5035206;28;20025;-82
2023/04/01 09:23:51;;;;;;;1.20;0.50;;;;;;;;;;5011888;28;20029;-81
2023/04/01 09:26:39;;;;;;;0.10;0.10;;;;;;;;;;5039431;28;20026;-82
2023/04/01 09:29:51;;;;;;;0.55;0.40;;;;;;;;;;4984073;28;20093;-81
2023/04/01 09:32:34;;;;;;;0.88;0.40;;;;;;;;;;5043074;28;20539;-83
2023/04/01 09:35:19;;;;;;;0.32;0.32;;;;;;;;;;5040920;28;20029;-81
2023/04/01 09:37:53;;;;;;;0.30;0.30;;;;;;;;;;5036843;28;20044;-81
2023/04/01 09:40:28;;;;;;;0.35;0.35;;;;;;;;;;5022455;28;20033;-82
2023/04/01 09:43:18;;;;;;;0.50;0.50;;;;;;;;;;5036605;28;20100;-85
2023/04/01 09:45:51;;;;;;;0.20;0.20;;;;;;;;;;5037541;28;20061;-84
2023/04/01 09:48:35;;;;;;;0.13;0.13;;;;;;;;;;5019223;28;20052;-85
2023/04/01 09:51:23;;;;;;;0.10;0.10;;;;;;;;;;5044490;28;20029;-84
2023/04/01 09:54:20;;;;;;;0.30;0.30;;;;;;;;;;5033880;28;20160;-84
2023/04/01 09:56:45;;;;;;;0.10;0.10;;;;;;;;;;5037006;28;20037;-81
2023/04/01 09:59:19;;;;;;;0.30;0.30;;;;;;;;;;5040081;28;20051;-79
2023/04/01 10:02:26;;;;;;;0.20;0.20;;;;;;;;;;5037668;28;20033;-79
2023/04/01 10:05:01;;;;;;;0.10;0.10;;;;;;;;;;5039123;28;20024;-81
2023/04/01 10:07:42;;;;;;;0.10;0.10;;;;;;;;;;5026417;28;20129;-81
2023/04/01 10:10:16;;;;;;;0.20;0.20;;;;;;;;;;5014822;28;20373;-79
2023/04/01 10:12:58;;;;;;;0.20;0.20;;;;;;;;;;5039368;28;20025;-79
2023/04/01 10:15:35;;;;;;;0.20;0.15;;;;;;;;;;5031239;28;20499;-84
2023/04/01 10:18:07;;;;;;;0.55;0.43;;;;;;;;;;5018717;28;20115;-85
2023/04/01 10:21:14;;;;;;;0.10;0.10;;;;;;;;;;5017473;28;20033;-82
2023/04/01 10:24:17;;;;;;;0.50;0.20;;;;;;;;;;5023057;28;20043;-81
2023/04/01 10:27:01;;;;;;;0.28;0.28;;;;;;;;;;5035154;28;20022;-80
2023/04/01 10:29:51;;;;;;;1.45;0.43;;;;;;;;;;5043405;28;20021;-79
2023/04/01 10:32:22;;;;;;;0.22;0.22;;;;;;;;;;5018717;28;20033;-84
2023/04/01 10:35:25;;;;;;;0.20;0.20;;;;;;;;;;5034817;28;20017;-82
2023/04/01 10:38:19;;;;;;;0.20;0.20;;;;;;;;;;5042318;28;20025;-80
2023/04/01 10:41:37;;;;;;;0.35;0.35;;;;;;;;;;5028753;28;20492;-82
2023/04/01 10:44:21;;;;;;;0.13;0.13;;;;;;;;;;5029404;28;20097;-81
2023/04/01 10:47:28;;;;;;;0.15;0.15;;;;;;;;;;5044164;28;20026;-79
2023/04/01 10:50:16;;;;;;;0.30;0.30;;;;;;;;;;5039884;28;20025;-82
2023/04/01 10:52:50;;;;;;;0.10;0.10;;;;;;;;;;5034548;28;20045;-81
2023/04/01 10:55:47;;;;;;;0.10;0.10;;;;;;;;;;5030074;28;20026;-82
2023/04/01 10:58:31;;;;;;;0.10;0.10;;;;;;;;;;5023153;28;20033;-82
2023/04/01 11:01:32;;;;;;;0.20;0.20;;;;;;;;;;5033760;28;20037;-81
2023/04/01 11:04:35;;;;;;;0.15;0.15;;;;;;;;;;5051084;28;20037;-80
2023/04/01 11:07:20;;;;;;;0.10;0.10;;;;;;;;;;5015260;28;20497;-80
2023/04/01 11:10:23;;;;;;;0.38;0.30;;;;;;;;;;5014431;28;20423;-81
2023/04/01 11:13:23;;;;;;;0.20;0.20;;;;;;;;;;5034160;28;20025;-80
2023/04/01 11:16:30;;;;;;;0.15;0.15;;;;;;;;;;5019233;28;20021;-82
2023/04/01 11:19:08;;;;;;;0.10;0.10;;;;;;;;;;5001532;28;20041;-82
2023/04/01 11:22:15;;;;;;;0.20;0.20;;;;;;;;;;5034633;28;20035;-82
2023/04/01 11:25:09;;;;;;;0.20;0.20;;;;;;;;;;5038622;28;20100;-81
2023/04/01 11:27:37;;;;;;;0.10;0.10;;;;;;;;;;5013732;28;20223;-81
2023/04/01 11:30:19;;;;;;;0.20;0.20;;;;;;;;;;5032963;28;20088;-78
2023/04/01 11:33:07;;;;;;;0.10;0.10;;;;;;;;;;5016430;28;20030;-82
2023/04/01 11:35:35;;;;;;;0.10;0.10;;;;;;;;;;5042187;28;20496;-81
2023/04/01 11:38:38;;;;;;;0.10;0.10;;;;;;;;;;5040448;28;20041;-81
2023/04/01 11:41:12;;;;;;;0.20;0.20;;;;;;;;;;5016275;28;20105;-81
2023/04/01 11:44:19;;;;;;;1.95;0.30;;;;;;;;;;5017242;28;20128;-81
2023/04/01 11:47:18;;;;;;;0.22;0.22;;;;;;;;;;5010773;28;20052;-80
2023/04/01 11:52:35;;;;;;;0.20;0.20;;;;;;;;;;5012033;28;20053;-78
2023/04/01 11:55:19;;;;;;;0.40;0.17;;;;;;;;;;5008844;28;20029;-78
2023/04/01 11:58:10;;;;;;;0.20;0.20;;;;;;;;;;4995575;28;20030;-78
2023/04/01 12:00:53;;;;;;;0.10;0.10;;;;;;;;;;5032479;28;20402;-78
2023/04/01 12:03:21;;;;;;;0.20;0.20;;;;;;;;;;5014421;28;20658;-79
2023/04/01 12:06:11;;;;;;;0.13;0.13;;;;;;;;;;5034084;28;20646;-78
2023/04/01 12:08:56;;;;;;;0.22;0.20;;;;;;;;;;5012697;28;20033;-76
2023/04/01 12:11:40;;;;;;;0.20;0.20;;;;;;;;;;5013863;28;20549;-79
2023/04/01 12:14:30;;;;;;;0.28;0.28;;;;;;;;;;5043379;28;20296;-75
2023/04/01 12:16:55;;;;;;;0.30;0.30;;;;;;;;;;5018069;28;20136;-76
2023/04/01 12:19:39;;;;;;;0.17;0.17;;;;;;;;;;5019608;28;20041;-77
2023/04/01 12:22:25;;;;;;;0.30;0.30;;;;;;;;;;5037150;28;20383;-78
2023/04/01 12:25:04;;;;;;;0.10;0.10;;;;;;;;;;5018660;28;20087;-77
2023/04/01 12:28:11;;;;;;;0.20;0.20;;;;;;;;;;5032266;28;20079;-78
2023/04/01 12:31:07;;;;;;;0.10;0.10;;;;;;;;;;5020812;28;20076;-77
2023/04/01 12:33:53;;;;;;;0.25;0.25;;;;;;;;;;5039057;28;20029;-78
2023/04/01 12:36:45;;;;;;;0.20;0.20;;;;;;;;;;5019699;28;20026;-78
2023/04/01 12:39:35;;;;;;;0.10;0.10;;;;;;;;;;5028597;28;20136;-75
2023/04/01 12:42:37;;;;;;;0.10;0.10;;;;;;;;;;5036089;28;20128;-76
2023/04/01 12:45:11;;;;;;;0.10;0.10;;;;;;;;;;5038743;28;20049;-77
2023/04/01 12:47:49;;;;;;;0.10;0.10;;;;;;;;;;5036374;28;20034;-76
2023/04/01 12:50:23;;;;;;;0.10;0.10;;;;;;;;;;5030410;28;20024;-78
2023/04/01 12:53:18;;;;;;;0.20;0.20;;;;;;;;;;5013779;28;20030;-77
2023/04/01 12:55:45;;;;;;;0.20;0.20;;;;;;;;;;5033546;28;20472;-77
2023/04/01 12:58:48;;;;;;;0.10;0.10;;;;;;;;;;5032609;28;20029;-77
2023/04/01 13:01:42;;;;;;;0.10;0.10;;;;;;;;;;5032459;28;20028;-77
2023/04/01 13:04:28;;;;;;;0.30;0.30;;;;;;;;;;5019237;28;20027;-77
2023/04/01 13:07:12;;;;;;;0.25;0.25;;;;;;;;;;5033214;28;20099;-77
2023/04/01 13:09:47;;;;;;;0.10;0.10;;;;;;;;;;5031097;28;20025;-78
2023/04/01 13:12:34;;;;;;;0.20;0.20;;;;;;;;;;5027023;28;20120;-80
2023/04/01 13:15:27;;;;;;;0.20;0.20;;;;;;;;;;5035524;28;20026;-80
2023/04/01 13:17:58;;;;;;;0.10;0.10;;;;;;;;;;5037948;28;20033;-80
2023/04/01 13:21:08;;;;;;;;;;;;;;;;;;;;;
2023/04/01 13:23:44;;;;;;;0.20;0.20;;;;;;;;;;5027783;28;20487;-81
2023/04/01 13:29:51;;;;;;;0.28;0.28;;;;;;;;;;4977345;28;20077;-78
2023/04/01 13:32:32;;;;;;;0.20;0.20;;;;;;;;;;5022781;28;20029;-78
2023/04/01 13:35:28;;;;;;;0.97;0.30;;;;;;;;;;5031863;28;20037;-78
2023/04/01 13:38:10;;;;;;;0.20;0.20;;;;;;;;;;5029248;28;20275;-78
2023/04/01 13:40:56;;;;;;;0.20;0.20;;;;;;;;;;5030179;28;20034;-79
2023/04/01 13:43:31;;;;;;;0.25;0.25;;;;;;;;;;5015130;28;20046;-78
2023/04/01 13:45:59;;;;;;;0.20;0.20;;;;;;;;;;5039356;28;20083;-79
2023/04/01 13:48:24;;;;;;;0.20;0.20;;;;;;;;;;5042760;28;20668;-78
2023/04/01 13:51:08;;;;;;;0.30;0.30;;;;;;;;;;5024178;28;20033;-79
2023/04/01 13:54:07;;;;;;;0.10;0.10;;;;;;;;;;5033683;28;20092;-78
2023/04/01 13:56:45;;;;;;;0.20;0.20;;;;;;;;;;5059529;28;20032;-78
2023/04/01 13:59:28;;;;;;;0.10;0.10;;;;;;;;;;5039859;28;20010;-79
2023/04/01 14:02:29;;;;;;;0.10;0.10;;;;;;;;;;5022562;28;20041;-79
2023/04/01 14:05:14;;;;;;;0.30;0.30;;;;;;;;;;5036596;28;20026;-78
2023/04/01 14:08:01;;;;;;;1.08;0.40;;;;;;;;;;5044798;28;20068;-78
2023/04/01 14:11:05;;;;;;;0.20;0.20;;;;;;;;;;5055737;28;20457;-78
2023/04/01 14:13:55;;;;;;;0.10;0.10;;;;;;;;;;5023193;28;20025;-78
2023/04/01 14:16:55;;;;;;;0.10;0.10;;;;;;;;;;5018274;28;20025;-78
2023/04/01 14:19:41;;;;;;;0.10;0.10;;;;;;;;;;4977921;28;20044;-78
2023/04/01 14:22:33;;;;;;;0.30;0.30;;;;;;;;;;5028903;28;20025;-79
2023/04/01 14:25:29;;;;;;;0.10;0.10;;;;;;;;;;5056499;28;20040;-78
2023/04/01 14:28:09;;;;;;;0.10;0.10;;;;;;;;;;5029920;28;20022;-78
2023/04/01 14:30:45;;;;;;;0.15;0.15;;;;;;;;;;5031814;28;20064;-79
2023/04/01 14:33:48;;;;;;;0.40;0.40;;;;;;;;;;5036862;28;20025;-81
2023/04/01 14:36:19;;;;;;;0.20;0.20;;;;;;;;;;5035514;28;20029;-80
2023/04/01 14:38:48;;;;;;;0.17;0.17;;;;;;;;;;5041277;28;20059;-80
2023/04/01 14:41:53;;;;;;;0.20;0.20;;;;;;;;;;5041924;28;20040;-80
2023/04/01 14:44:28;;;;;;;0.40;0.40;;;;;;;;;;5060533;28;20037;-80
2023/04/01 14:47:39;;;;;;;0.28;0.28;;;;;;;;;;5059977;28;20312;-80
2023/04/01 14:50:14;;;;;;;0.28;0.28;;;;;;;;;;5047481;28;20081;-80
2023/04/01 14:52:44;;;;;;;0.10;0.10;;;;;;;;;;5038197;28;20033;-80
2023/04/01 14:55:26;;;;;;;0.13;0.13;;;;;;;;;;5040230;28;20017;-80
2023/04/01 14:58:00;;;;;;;0.32;0.32;;;;;;;;;;5031695;28;20045;-80
2023/04/01 15:00:26;;;;;;;0.20;0.20;;;;;;;;;;5021630;28;20029;-80
2023/04/01 15:03:03;;;;;;;0.77;0.45;;;;;;;;;;5039037;28;20112;-80
2023/04/01 15:05:39;;;;;;;0.13;0.13;;;;;;;;;;5057647;28;20090;-80
2023/04/01 15:08:24;;;;;;;0.30;0.30;;;;;;;;;;5057725;28;20032;-79
2023/04/01 15:11:15;;;;;;;1.33;0.20;;;;;;;;;;5018131;28;20034;-80
2023/04/01 15:13:55;;;;;;;0.20;0.20;;;;;;;;;;5018930;28;20025;-78
2023/04/01 15:16:52;;;;;;;0.30;0.30;;;;;;;;;;5035901;28;20436;-80
2023/04/01 15:19:48;;;;;;;0.15;0.15;;;;;;;;;;5033233;28;20081;-79
2023/04/01 15:22:19;;;;;;;0.20;0.20;;;;;;;;;;5036181;28;20435;-79
2023/04/01 15:25:12;;;;;;;1.20;0.23;;;;;;;;;;5035612;28;20070;-79
2023/04/01 15:27:50;;;;;;;0.20;0.20;;;;;;;;;;5017643;28;20280;-79
2023/04/01 15:30:33;;;;;;;0.30;0.30;;;;;;;;;;5025568;28;20025;-78
2023/04/01 15:33:17;;;;;;;0.10;0.10;;;;;;;;;;5031102;28;20105;-79
2023/04/01 15:35:58;;;;;;;0.20;0.20;;;;;;;;;;5036010;28;20034;-80
2023/04/01 15:38:42;;;;;;;0.20;0.20;;;;;;;;;;5018902;28;20120;-78
2023/04/01 15:41:21;;;;;;;0.20;0.20;;;;;;;;;;5037246;28;20029;-81
2023/04/01 15:43:48;;;;;;;0.65;0.43;;;;;;;;;;5027934;28;20045;-80
2023/04/01 15:46:44;;;;;;;0.28;0.28;;;;;;;;;;5022424;28;20390;-80
2023/04/01 15:49:40;;;;;;;0.20;0.20;;;;;;;;;;5055316;28;20033;-80